createdAt,value
2019-01-05T00:01:42.082Z,2.40
2019-01-05T00:04:47.521Z,2.40
2019-01-05T00:07:44.001Z,2.40
2019-01-05T00:10:32.217Z,2.40
2019-01-05T00:13:30.869Z,2.40
2019-01-05T00:22:25.565Z,2.40
2019-01-05T00:25:21.706Z,2.40
2019-01-05T00:28:15.385Z,2.40
2019-01-05T00:31:20.280Z,2.40
2019-01-05T00:34:22.105Z,2.40
2019-01-05T00:37:29.913Z,2.40
2019-01-05T00:40:21.280Z,2.40
2019-01-05T00:43:21.004Z,2.40
2019-01-05T00:46:17.212Z,2.40
2019-01-05T00:49:20.313Z,2.40
2019-01-05T00:52:27.777Z,2.40
2019-01-05T00:55:32.297Z,2.40
2019-01-05T00:58:21.313Z,2.50
2019-01-05T01:01:22.979Z,2.40
2019-01-05T01:04:11.264Z,2.40
2019-01-05T01:07:16.241Z,2.40
2019-01-05T01:10:04.827Z,2.40
2019-01-05T01:13:00.281Z,2.40
2019-01-05T01:15:48.773Z,2.40
2019-01-05T01:18:31.434Z,2.40
2019-01-05T01:21:13.729Z,2.40
2019-01-05T01:24:09.671Z,2.40
2019-01-05T01:27:05.673Z,2.40
2019-01-05T01:29:56.297Z,2.50
2019-01-05T01:32:44.766Z,2.50
2019-01-05T01:35:33.537Z,2.50
2019-01-05T01:38:36.258Z,2.50
2019-01-05T01:41:38.886Z,2.40
2019-01-05T01:44:29.911Z,2.40
2019-01-05T01:47:19.163Z,2.40
2019-01-05T01:50:08.838Z,2.40
2019-01-05T01:53:06.358Z,2.40
2019-01-05T01:56:01.481Z,2.50
2019-01-05T01:59:00.261Z,2.50
2019-01-05T02:01:50.852Z,2.40
2019-01-05T02:04:39.724Z,2.50
2019-01-05T02:07:31.025Z,2.40
2019-01-05T02:10:37.181Z,2.40
2019-01-05T02:13:33.898Z,2.40
2019-01-05T02:16:35.978Z,2.40
2019-01-05T02:19:40.749Z,2.40
2019-01-05T02:22:56.826Z,2.40
2019-01-05T02:26:35.758Z,2.40
2019-01-05T02:30:05.107Z,2.40
2019-01-05T02:33:40.257Z,2.40
2019-01-05T02:36:52.119Z,2.40
2019-01-05T02:40:20.205Z,2.40
2019-01-05T02:43:59.439Z,2.40
2019-01-05T02:47:43.081Z,2.40
2019-01-05T02:51:11.461Z,2.40
2019-01-05T02:54:36.650Z,2.30
2019-01-05T02:58:01.812Z,2.30
2019-01-05T03:01:38.866Z,2.30
2019-01-05T03:05:23.769Z,2.20
2019-01-05T03:08:58.322Z,2.20
2019-01-05T03:12:19.915Z,2.20
2019-01-05T03:15:28.382Z,2.20
2019-01-05T03:19:18.126Z,2.20
2019-01-05T03:22:56.539Z,2.10
2019-01-05T03:26:27.149Z,2.10
2019-01-05T03:29:48.368Z,2.10
2019-01-05T03:33:23.072Z,2.10
2019-01-05T03:37:04.289Z,2.10
2019-01-05T03:40:43.922Z,2.10
2019-01-05T03:44:13.534Z,2.10
2019-01-05T03:47:38.602Z,2.10
2019-01-05T03:50:57.385Z,2.10
2019-01-05T03:54:35.938Z,2.10
2019-01-05T03:58:14.364Z,2.00
2019-01-05T04:01:45.883Z,2.10
2019-01-05T04:05:25.140Z,2.10
2019-01-05T04:08:45.271Z,2.10
2019-01-05T04:12:26.293Z,2.00
2019-01-05T04:15:53.284Z,2.10
2019-01-05T04:19:21.195Z,2.10
2019-01-05T04:22:39.162Z,2.00
2019-01-05T04:26:28.978Z,2.10
2019-01-05T04:29:34.104Z,2.00
2019-01-05T04:33:05.080Z,2.00
2019-01-05T04:36:25.763Z,1.90
2019-01-05T04:40:05.025Z,1.90
2019-01-05T04:44:02.401Z,1.80
2019-01-05T04:47:49.685Z,1.70
2019-01-05T04:51:07.573Z,1.70
2019-01-05T04:54:42.134Z,1.70
2019-01-05T04:58:15.593Z,1.60
2019-01-05T05:01:44.073Z,1.60
2019-01-05T05:05:31.073Z,1.50
2019-01-05T05:08:58.878Z,1.40
2019-01-05T05:12:28.702Z,1.40
2019-01-05T05:16:11.006Z,1.30
2019-01-05T05:19:35.025Z,1.30
2019-01-05T05:22:49.194Z,1.20
2019-01-05T05:26:26.232Z,1.20
2019-01-05T05:30:06.353Z,1.10
2019-01-05T05:33:47.421Z,1.20
2019-01-05T05:37:06.249Z,1.10
2019-01-05T05:40:33.639Z,1.00
2019-01-05T05:44:16.977Z,1.00
2019-01-05T05:47:31.247Z,1.00
2019-01-05T05:50:59.907Z,1.00
2019-01-05T05:54:37.022Z,1.00
2019-01-05T05:57:59.766Z,1.00
2019-01-05T06:01:47.512Z,0.90
2019-01-05T06:05:18.494Z,0.90
2019-01-05T06:09:05.681Z,0.90
2019-01-05T06:12:50.429Z,1.00
2019-01-05T06:16:27.023Z,0.90
2019-01-05T06:19:53.546Z,0.90
2019-01-05T06:23:22.915Z,0.90
2019-01-05T06:26:49.255Z,0.90
2019-01-05T06:30:20.814Z,0.90
2019-01-05T06:33:50.662Z,0.90
2019-01-05T06:37:01.924Z,0.90
2019-01-05T06:40:40.040Z,0.90
2019-01-05T06:44:21.446Z,0.90
2019-01-05T06:47:52.918Z,0.90
2019-01-05T06:51:33.614Z,0.90
2019-01-05T06:55:11.401Z,0.90
2019-01-05T06:58:46.235Z,1.00
2019-01-05T07:02:11.959Z,1.00
2019-01-05T07:05:49.610Z,1.00
2019-01-05T07:09:14.727Z,1.00
2019-01-05T07:12:49.178Z,1.10
2019-01-05T07:16:38.281Z,1.10
2019-01-05T07:20:12.616Z,1.10
2019-01-05T07:24:03.308Z,1.20
2019-01-05T07:27:41.103Z,1.20
2019-01-05T07:31:41.293Z,1.20
2019-01-05T07:35:15.535Z,1.20
2019-01-05T07:38:55.792Z,1.20
2019-01-05T07:42:40.627Z,1.20
2019-01-05T07:46:35.716Z,1.20
2019-01-05T07:50:19.650Z,1.20
2019-01-05T07:54:07.257Z,1.20
2019-01-05T07:57:44.774Z,1.50
2019-01-05T08:01:30.742Z,1.20
2019-01-05T08:05:06.075Z,1.10
2019-01-05T08:08:52.178Z,1.10
2019-01-05T08:12:22.017Z,1.10
2019-01-05T08:15:55.864Z,1.10
2019-01-05T08:19:38.166Z,1.00
2019-01-05T08:23:04.494Z,1.00
2019-01-05T08:26:25.630Z,1.00
2019-01-05T08:29:50.098Z,1.00
2019-01-05T08:33:22.283Z,1.00
2019-01-05T08:36:47.403Z,1.00
2019-01-05T08:40:28.985Z,1.00
2019-01-05T08:43:58.401Z,1.00
2019-01-05T08:47:36.081Z,1.00
2019-01-05T08:50:56.019Z,0.90
2019-01-05T08:54:25.093Z,0.90
2019-01-05T08:57:53.636Z,1.00
2019-01-05T09:01:18.193Z,1.00
2019-01-05T09:04:33.775Z,0.90
2019-01-05T09:08:05.069Z,0.90
2019-01-05T09:11:17.000Z,0.90
2019-01-05T09:14:50.614Z,0.90
2019-01-05T09:18:47.667Z,0.90
2019-01-05T09:22:11.858Z,0.90
2019-01-05T09:25:42.430Z,0.90
2019-01-05T09:29:23.294Z,0.90
2019-01-05T09:32:51.793Z,1.00
2019-01-05T09:36:07.234Z,0.90
2019-01-05T09:39:24.454Z,1.00
2019-01-05T09:43:03.000Z,1.00
2019-01-05T09:46:24.877Z,1.00
2019-01-05T09:49:38.230Z,0.90
2019-01-05T09:53:19.496Z,1.00
2019-01-05T09:56:34.287Z,1.00
2019-01-05T10:00:00.599Z,1.00
2019-01-05T10:03:45.890Z,1.00
2019-01-05T10:07:02.246Z,1.00
2019-01-05T10:10:46.694Z,1.10
2019-01-05T10:14:15.243Z,1.10
2019-01-05T10:17:54.894Z,1.10
2019-01-05T10:21:32.038Z,1.00
2019-01-05T10:25:13.469Z,1.00
2019-01-05T10:28:33.133Z,1.00
2019-01-05T10:31:54.610Z,1.00
2019-01-05T10:35:23.145Z,1.00
2019-01-05T10:39:21.960Z,1.10
2019-01-05T10:42:54.156Z,1.00
2019-01-05T10:46:35.853Z,1.00
2019-01-05T10:50:11.598Z,1.00
2019-01-05T10:53:34.720Z,1.00
2019-01-05T10:57:03.534Z,1.10
2019-01-05T11:00:36.777Z,1.10
2019-01-05T11:04:26.990Z,1.10
2019-01-05T11:08:18.737Z,1.10
2019-01-05T11:12:12.843Z,1.10
2019-01-05T11:19:45.375Z,1.10
2019-01-05T11:23:31.085Z,1.10
2019-01-05T11:27:07.525Z,1.20
2019-01-05T11:30:51.567Z,1.20
2019-01-05T11:34:04.627Z,1.30
2019-01-05T11:37:43.988Z,1.30
2019-01-05T11:41:13.083Z,1.30
2019-01-05T11:44:57.268Z,1.40
2019-01-05T11:48:18.058Z,1.40
2019-01-05T11:52:28.390Z,1.50
2019-01-05T11:55:56.636Z,1.50
2019-01-05T11:59:35.463Z,1.50
2019-01-05T12:03:19.199Z,1.50
2019-01-05T12:07:15.986Z,1.60
2019-01-05T12:11:01.267Z,1.60
2019-01-05T12:14:38.282Z,1.50
2019-01-05T12:18:20.710Z,1.60
2019-01-05T12:22:01.328Z,1.60
2019-01-05T12:25:19.854Z,1.60
2019-01-05T12:28:45.358Z,1.70
2019-01-05T12:32:05.494Z,1.90
2019-01-05T12:35:38.546Z,1.80
2019-01-05T12:39:29.989Z,1.90
2019-01-05T12:42:53.408Z,1.90
2019-01-05T12:46:30.058Z,2.00
2019-01-05T12:50:03.594Z,1.90
2019-01-05T12:53:36.410Z,2.10
2019-01-05T12:57:14.932Z,2.20
2019-01-05T13:00:35.023Z,2.20
2019-01-05T13:04:19.488Z,2.30
2019-01-05T13:07:42.060Z,2.30
2019-01-05T13:11:27.506Z,2.40
2019-01-05T13:14:48.858Z,2.40
2019-01-05T13:18:20.463Z,2.50
2019-01-05T13:21:49.670Z,2.50
2019-01-05T13:25:17.873Z,2.50
2019-01-05T13:28:42.909Z,2.50
2019-01-05T13:32:56.062Z,2.60
2019-01-05T13:36:24.560Z,2.60
2019-01-05T13:39:47.899Z,2.60
2019-01-05T13:43:17.145Z,2.70
2019-01-05T13:47:00.977Z,2.70
2019-01-05T13:50:18.065Z,2.80
2019-01-05T13:53:28.038Z,2.70
2019-01-05T13:56:26.143Z,2.60
2019-01-05T13:59:07.981Z,2.70
2019-01-05T14:02:06.957Z,2.60
2019-01-05T14:04:55.342Z,2.70
2019-01-05T14:07:45.022Z,2.70
2019-01-05T14:10:40.846Z,2.70
2019-01-05T14:13:37.178Z,2.70
2019-01-05T14:16:45.260Z,2.80
2019-01-05T14:19:33.490Z,2.80
2019-01-05T14:22:29.427Z,2.80
2019-01-05T14:25:37.391Z,2.80
2019-01-05T14:28:35.666Z,2.80
2019-01-05T14:31:25.373Z,2.90
2019-01-05T14:34:13.686Z,2.70
2019-01-05T14:37:17.213Z,2.80
2019-01-05T14:40:06.886Z,2.80
2019-01-05T14:43:14.937Z,2.80
2019-01-05T14:46:03.625Z,2.70
2019-01-05T14:48:53.297Z,2.80
2019-01-05T14:51:42.948Z,2.80
2019-01-05T14:54:32.221Z,2.90
2019-01-05T14:57:20.369Z,3.00
2019-01-05T15:00:08.716Z,3.00
2019-01-05T15:02:57.105Z,2.90
2019-01-05T15:05:54.909Z,3.00
2019-01-05T15:08:50.533Z,3.00
2019-01-05T15:11:48.959Z,3.00
2019-01-05T15:14:38.407Z,3.10
2019-01-05T15:17:27.022Z,3.10
2019-01-05T15:20:15.266Z,3.10
2019-01-05T15:23:04.970Z,3.00
2019-01-05T15:25:54.600Z,3.20
2019-01-05T15:28:47.513Z,3.20
2019-01-05T15:31:36.149Z,3.20
2019-01-05T15:34:24.449Z,3.20
2019-01-05T15:37:12.630Z,3.30
2019-01-05T15:40:01.026Z,3.40
2019-01-05T15:42:56.585Z,3.40
2019-01-05T15:45:46.266Z,3.40
2019-01-05T15:48:45.039Z,3.40
2019-01-05T15:51:33.601Z,3.40
2019-01-05T15:54:23.293Z,3.40
2019-01-05T15:57:18.988Z,3.40
2019-01-05T16:00:14.397Z,3.40
2019-01-05T16:03:02.614Z,3.50
2019-01-05T16:05:50.884Z,3.40
2019-01-05T16:08:39.417Z,3.40
2019-01-05T16:11:27.977Z,3.40
2019-01-05T16:14:16.469Z,3.50
2019-01-05T16:17:15.058Z,3.60
2019-01-05T16:20:10.808Z,3.50
2019-01-05T16:23:09.305Z,3.50
2019-01-05T16:26:11.218Z,3.50
2019-01-05T16:29:16.206Z,3.60
2019-01-05T16:32:23.925Z,3.50
2019-01-05T16:35:17.118Z,3.50
2019-01-05T16:38:05.411Z,3.50
2019-01-05T16:41:07.358Z,3.50
2019-01-05T16:43:48.486Z,3.50
2019-01-05T16:46:47.901Z,3.40
2019-01-05T16:49:36.037Z,3.50
2019-01-05T16:52:24.432Z,3.50
2019-01-05T16:55:23.506Z,3.50
2019-01-05T16:58:22.021Z,3.50
2019-01-05T17:01:27.161Z,3.40
2019-01-05T17:04:15.415Z,3.50
2019-01-05T17:07:23.677Z,3.60
2019-01-05T17:10:31.577Z,3.50
2019-01-05T17:13:19.900Z,3.60
2019-01-05T17:16:11.463Z,3.60
2019-01-05T17:19:00.153Z,3.60
2019-01-05T17:21:48.770Z,3.60
2019-01-05T17:24:36.582Z,3.60
2019-01-05T17:27:24.964Z,3.60
2019-01-05T17:30:13.544Z,3.60
2019-01-05T17:33:21.373Z,3.70
2019-01-05T17:36:06.675Z,3.60
2019-01-05T17:38:51.405Z,3.60
2019-01-05T17:41:49.942Z,3.60
2019-01-05T17:44:38.157Z,3.60
2019-01-05T17:47:36.428Z,3.60
2019-01-05T17:50:26.121Z,3.70
2019-01-05T17:53:15.808Z,3.70
2019-01-05T17:56:00.554Z,3.60
2019-01-05T17:58:48.814Z,3.70
2019-01-05T18:01:34.269Z,3.70
2019-01-05T18:04:22.868Z,3.80
2019-01-05T18:07:15.312Z,3.80
2019-01-05T18:10:10.778Z,3.80
2019-01-05T18:13:00.456Z,3.80
2019-01-05T18:15:48.713Z,3.80
2019-01-05T18:18:41.385Z,3.80
2019-01-05T18:21:31.089Z,3.80
2019-01-05T18:24:23.858Z,3.90
2019-01-05T18:27:31.975Z,3.90
2019-01-05T18:30:39.680Z,3.90
2019-01-05T18:33:35.003Z,3.90
2019-01-05T18:36:35.914Z,3.90
2019-01-05T18:39:29.869Z,3.90
2019-01-05T18:42:18.273Z,3.90
2019-01-05T18:45:08.008Z,3.90
2019-01-05T18:48:16.088Z,3.90
2019-01-05T18:51:04.175Z,4.00
2019-01-05T18:53:57.111Z,4.00
2019-01-05T18:57:21.814Z,4.00
2019-01-05T19:00:26.739Z,4.00
2019-01-05T19:03:14.442Z,4.00
2019-01-05T19:06:00.856Z,4.00
2019-01-05T19:08:45.707Z,4.00
2019-01-05T19:11:35.531Z,4.00
2019-01-05T19:14:24.261Z,4.00
2019-01-05T19:17:20.433Z,4.00
2019-01-05T19:20:08.846Z,4.10
2019-01-05T19:23:05.782Z,4.10
2019-01-05T19:26:09.802Z,4.10
2019-01-05T19:28:58.370Z,4.10
2019-01-05T19:31:53.867Z,4.10
2019-01-05T19:34:54.932Z,4.10
2019-01-05T19:37:43.538Z,4.10
2019-01-05T19:40:32.022Z,4.10
2019-01-05T19:43:40.261Z,4.10
2019-01-05T19:46:30.014Z,4.20
2019-01-05T19:49:19.530Z,4.10
2019-01-05T19:52:17.953Z,4.10
2019-01-05T19:55:06.656Z,4.10
2019-01-05T19:57:55.258Z,4.10
2019-01-05T20:00:36.374Z,4.10
2019-01-05T20:03:25.046Z,4.10
2019-01-05T20:06:13.518Z,4.20
2019-01-05T20:08:59.624Z,4.10
2019-01-05T20:12:04.481Z,4.10
2019-01-05T20:15:08.901Z,4.20
2019-01-05T20:18:01.585Z,4.20
2019-01-05T20:20:50.042Z,4.20
2019-01-05T20:23:38.555Z,4.20
2019-01-05T20:26:34.078Z,4.10
2019-01-05T20:29:35.702Z,4.10
2019-01-05T20:32:37.381Z,4.20
2019-01-05T20:35:27.011Z,4.20
2019-01-05T20:38:15.569Z,4.30
2019-01-05T20:41:05.380Z,4.20
2019-01-05T20:43:49.377Z,4.20
2019-01-05T20:46:37.697Z,4.20
2019-01-05T20:49:39.622Z,4.20
2019-01-05T20:52:27.107Z,4.20
2019-01-05T20:55:35.721Z,4.20
2019-01-05T20:58:25.423Z,4.30
2019-01-05T21:01:13.878Z,4.30
2019-01-05T21:04:02.522Z,4.30
2019-01-05T21:06:50.902Z,4.30
2019-01-05T21:09:55.713Z,4.30
2019-01-05T21:12:45.429Z,4.30
2019-01-05T21:15:41.062Z,4.30
2019-01-05T21:18:29.530Z,4.30
2019-01-05T21:21:34.685Z,4.30
2019-01-05T21:24:36.214Z,4.30
2019-01-05T21:27:31.705Z,4.30
2019-01-05T21:30:21.293Z,4.30
2019-01-05T21:33:26.389Z,4.30
2019-01-05T21:36:31.229Z,4.30
2019-01-05T21:39:19.810Z,4.30
2019-01-05T21:42:27.630Z,4.30
2019-01-05T21:45:16.369Z,4.20
2019-01-05T21:48:12.296Z,4.20
2019-01-05T21:51:00.018Z,4.30
2019-01-05T21:53:48.301Z,4.30
2019-01-05T21:56:40.985Z,4.30
2019-01-05T21:59:42.697Z,4.30
2019-01-05T22:02:31.251Z,4.20
2019-01-05T22:05:20.078Z,4.20
2019-01-05T22:08:03.740Z,3.80
2019-01-05T22:10:53.890Z,4.30
2019-01-05T22:13:34.978Z,4.20
2019-01-05T22:16:23.560Z,4.30
2019-01-05T22:19:13.277Z,4.30
2019-01-05T22:22:18.036Z,4.30
2019-01-05T22:25:22.872Z,4.20
2019-01-05T22:28:23.610Z,4.20
2019-01-05T22:31:12.059Z,4.20
2019-01-05T22:34:13.780Z,4.20
2019-01-05T22:36:57.058Z,4.30
2019-01-05T22:39:52.790Z,4.20
2019-01-05T22:42:41.378Z,4.30
2019-01-05T22:45:46.122Z,4.20
2019-01-05T22:48:35.821Z,4.30
2019-01-05T22:51:34.528Z,4.20
2019-01-05T22:54:15.625Z,4.20
2019-01-05T22:57:06.461Z,4.20
2019-01-05T23:00:02.333Z,4.30
2019-01-05T23:03:11.542Z,4.20
2019-01-05T23:06:11.968Z,4.20
2019-01-05T23:09:00.061Z,4.30
2019-01-05T23:11:48.323Z,4.30
2019-01-05T23:14:46.731Z,4.30
2019-01-05T23:17:42.562Z,4.30
2019-01-05T23:20:31.108Z,4.30
2019-01-05T23:23:27.430Z,4.20
2019-01-05T23:26:34.936Z,4.20
2019-01-05T23:29:29.656Z,4.20
2019-01-05T23:32:18.497Z,4.20
2019-01-05T23:35:14.005Z,4.20
2019-01-05T23:38:18.773Z,4.20
2019-01-05T23:41:07.233Z,4.30
2019-01-05T23:43:56.401Z,4.20
2019-01-05T23:46:46.014Z,4.20
2019-01-05T23:49:47.778Z,4.20
2019-01-05T23:52:36.384Z,4.30
2019-01-05T23:55:26.150Z,4.20
2019-01-05T23:58:42.941Z,4.20
